createdAt,value
2022-11-11T00:01:59.275Z,2.40
2022-11-11T00:04:47.120Z,2.72
2022-11-11T00:07:33.364Z,2.30
2022-11-11T00:10:20.238Z,2.40
2022-11-11T00:13:06.729Z,2.50
2022-11-11T00:15:52.929Z,3.10
2022-11-11T00:18:57.443Z,1.83
2022-11-11T00:22:02.632Z,2.00
2022-11-11T00:25:07.076Z,2.55
2022-11-11T00:27:54.303Z,2.40
2022-11-11T00:30:40.528Z,2.20
2022-11-11T00:33:26.804Z,2.58
2022-11-11T00:36:12.932Z,2.78
2022-11-11T00:39:00.556Z,2.67
2022-11-11T00:41:46.682Z,2.53
2022-11-11T00:44:32.892Z,2.35
2022-11-11T00:47:36.410Z,2.55
2022-11-11T00:50:42.187Z,2.60
2022-11-11T00:53:31.416Z,2.60
2022-11-11T00:56:19.251Z,2.63
2022-11-11T00:59:06.454Z,2.80
2022-11-11T01:01:53.210Z,2.50
2022-11-11T01:04:39.568Z,2.33
2022-11-11T01:07:25.946Z,2.30
2022-11-11T01:10:12.900Z,2.53
2022-11-11T01:13:12.235Z,2.10
2022-11-11T01:16:02.873Z,2.78
2022-11-11T01:18:49.405Z,2.30
2022-11-11T01:21:35.869Z,2.30
2022-11-11T01:24:22.538Z,2.50
2022-11-11T01:27:09.061Z,2.55
2022-11-11T01:29:56.824Z,3.28
2022-11-11T01:32:43.701Z,2.70
2022-11-11T01:35:30.603Z,2.20
2022-11-11T01:38:17.427Z,2.53
2022-11-11T01:41:26.467Z,2.35
2022-11-11T01:44:40.819Z,3.05
2022-11-11T01:48:16.583Z,3.17
2022-11-11T01:50:57.221Z,2.40
2022-11-11T01:53:44.903Z,2.90
2022-11-11T01:56:31.751Z,2.95
2022-11-11T01:59:19.167Z,2.35
2022-11-11T02:02:13.251Z,2.35
2022-11-11T02:05:21.919Z,2.25
2022-11-11T02:08:12.837Z,2.40
2022-11-11T02:11:01.824Z,2.60
2022-11-11T02:14:05.431Z,2.75
2022-11-11T02:16:52.856Z,2.55
2022-11-11T02:19:46.685Z,3.17
2022-11-11T02:22:42.505Z,3.15
2022-11-11T02:25:32.851Z,2.58
2022-11-11T02:28:22.814Z,2.58
2022-11-11T02:31:09.854Z,2.75
2022-11-11T02:33:57.667Z,2.25
2022-11-11T02:36:45.997Z,3.00
2022-11-11T02:40:01.548Z,2.63
2022-11-11T02:42:43.360Z,2.78
2022-11-11T02:45:30.237Z,2.60
2022-11-11T02:48:16.413Z,2.65
2022-11-11T02:51:03.137Z,3.10
2022-11-11T02:53:49.878Z,2.42
2022-11-11T02:56:54.033Z,3.00
2022-11-11T02:59:42.420Z,3.05
2022-11-11T03:02:29.698Z,2.80
2022-11-11T03:05:16.718Z,2.70
2022-11-11T03:08:03.409Z,2.60
2022-11-11T03:10:49.953Z,2.95
2022-11-11T03:13:36.725Z,2.53
2022-11-11T03:16:39.247Z,2.92
2022-11-11T03:19:26.061Z,3.10
2022-11-11T03:23:13.037Z,2.80
2022-11-11T03:25:36.870Z,2.55
2022-11-11T03:28:25.006Z,2.67
2022-11-11T03:31:11.388Z,2.72
2022-11-11T03:34:18.081Z,2.67
2022-11-11T03:37:23.529Z,2.85
2022-11-11T03:40:11.065Z,2.67
2022-11-11T03:43:02.880Z,2.90
2022-11-11T03:45:51.309Z,2.63
2022-11-11T03:48:37.847Z,2.83
2022-11-11T03:51:25.364Z,2.75
2022-11-11T03:54:11.610Z,2.92
2022-11-11T03:57:18.488Z,3.00
2022-11-11T04:00:13.325Z,3.20
2022-11-11T04:03:22.025Z,2.67
2022-11-11T04:06:28.646Z,2.97
2022-11-11T04:09:34.489Z,3.17
2022-11-11T04:12:21.271Z,3.08
2022-11-11T04:15:25.740Z,2.90
2022-11-11T04:18:12.324Z,2.90
2022-11-11T04:21:16.014Z,2.88
2022-11-11T04:24:02.653Z,2.80
2022-11-11T04:26:49.800Z,2.95
2022-11-11T04:29:36.244Z,2.58
2022-11-11T04:32:39.822Z,2.40
2022-11-11T04:35:26.751Z,3.28
2022-11-11T04:38:30.517Z,2.50
2022-11-11T04:41:17.056Z,2.63
2022-11-11T04:44:22.378Z,3.15
2022-11-11T04:47:08.946Z,2.55
2022-11-11T04:49:55.087Z,3.08
2022-11-11T04:52:41.407Z,3.20
2022-11-11T04:55:50.325Z,3.20
2022-11-11T04:58:36.875Z,3.30
2022-11-11T05:01:38.596Z,2.72
2022-11-11T05:04:25.288Z,2.83
2022-11-11T05:07:28.968Z,3.47
2022-11-11T05:10:15.741Z,3.10
2022-11-11T05:13:23.799Z,2.40
2022-11-11T05:16:32.495Z,2.42
2022-11-11T05:19:37.844Z,2.80
2022-11-11T05:22:27.828Z,2.70
2022-11-11T05:25:25.377Z,3.20
2022-11-11T05:28:11.583Z,2.35
2022-11-11T05:30:57.774Z,2.30
2022-11-11T05:33:43.888Z,2.65
2022-11-11T05:36:31.407Z,2.95
2022-11-11T05:39:17.559Z,3.20
2022-11-11T05:42:03.923Z,3.05
2022-11-11T05:44:50.576Z,2.63
2022-11-11T05:47:37.058Z,3.03
2022-11-11T05:50:23.438Z,2.50
2022-11-11T05:53:10.971Z,2.95
2022-11-11T05:55:57.176Z,2.90
2022-11-11T05:58:46.932Z,2.97
2022-11-11T06:01:37.286Z,2.67
2022-11-11T06:04:23.964Z,3.13
2022-11-11T06:07:10.171Z,2.67
2022-11-11T06:10:18.507Z,2.47
2022-11-11T06:13:07.571Z,2.38
2022-11-11T06:15:53.677Z,2.70
2022-11-11T06:18:39.933Z,3.13
2022-11-11T06:21:26.122Z,2.70
2022-11-11T06:24:12.229Z,4.13
2022-11-11T06:26:59.944Z,2.97
2022-11-11T06:29:46.170Z,2.25
2022-11-11T06:32:32.407Z,2.90
2022-11-11T06:35:18.549Z,2.65
2022-11-11T06:38:06.185Z,2.90
2022-11-11T06:40:52.608Z,2.72
2022-11-11T06:43:40.338Z,2.75
2022-11-11T06:46:27.168Z,2.88
2022-11-11T06:49:13.572Z,2.65
2022-11-11T06:51:59.754Z,2.65
2022-11-11T06:54:46.395Z,2.47
2022-11-11T06:57:32.663Z,2.97
2022-11-11T07:00:21.279Z,2.85
2022-11-11T07:03:08.841Z,3.35
2022-11-11T07:05:59.078Z,2.80
2022-11-11T07:08:46.220Z,2.75
2022-11-11T07:11:32.432Z,2.97
2022-11-11T07:14:18.683Z,3.20
2022-11-11T07:17:06.736Z,3.05
2022-11-11T07:19:53.010Z,3.53
2022-11-11T07:22:39.842Z,3.00
2022-11-11T07:25:26.517Z,3.17
2022-11-11T07:28:12.757Z,3.03
2022-11-11T07:30:59.141Z,2.65
2022-11-11T07:33:46.705Z,3.25
2022-11-11T07:36:32.894Z,2.88
2022-11-11T07:39:19.176Z,3.15
2022-11-11T07:42:05.414Z,3.70
2022-11-11T07:44:51.589Z,3.90
2022-11-11T07:47:38.094Z,2.88
2022-11-11T07:50:25.920Z,2.72
2022-11-11T07:53:12.210Z,3.00
2022-11-11T07:55:58.507Z,3.20
2022-11-11T07:58:44.795Z,3.22
2022-11-11T08:01:31.082Z,3.22
2022-11-11T08:04:17.330Z,3.70
2022-11-11T08:07:04.878Z,2.88
2022-11-11T08:09:51.040Z,3.03
2022-11-11T08:12:54.757Z,3.10
2022-11-11T08:15:41.842Z,2.72
2022-11-11T08:18:27.997Z,2.45
2022-11-11T08:21:14.158Z,2.80
2022-11-11T08:24:56.835Z,3.05
2022-11-11T08:27:09.714Z,3.28
2022-11-11T08:29:56.100Z,3.65
2022-11-11T08:32:42.503Z,3.47
2022-11-11T08:35:29.799Z,2.70
2022-11-11T08:38:16.000Z,3.42
2022-11-11T08:41:05.090Z,3.08
2022-11-11T08:43:55.682Z,2.72
2022-11-11T08:46:42.235Z,2.92
2022-11-11T08:49:28.924Z,2.83
2022-11-11T08:52:15.773Z,2.75
2022-11-11T08:55:02.344Z,3.03
2022-11-11T08:57:58.130Z,3.20
2022-11-11T09:00:44.841Z,3.35
2022-11-11T09:03:31.730Z,3.05
2022-11-11T09:06:18.212Z,4.10
2022-11-11T09:09:04.557Z,3.20
2022-11-11T09:11:50.730Z,2.83
2022-11-11T09:14:38.468Z,3.28
2022-11-11T09:17:24.832Z,2.95
2022-11-11T09:20:11.931Z,2.92
2022-11-11T09:22:58.157Z,3.60
2022-11-11T09:25:44.564Z,2.90
2022-11-11T09:28:31.333Z,3.15
2022-11-11T09:34:25.780Z,3.35
2022-11-11T09:37:11.958Z,3.35
2022-11-11T09:39:58.202Z,3.00
2022-11-11T09:42:50.087Z,2.95
2022-11-11T09:45:48.665Z,3.05
2022-11-11T09:48:48.392Z,3.38
2022-11-11T09:51:48.030Z,2.95
2022-11-11T09:54:41.795Z,3.00
2022-11-11T09:57:38.526Z,3.07
2022-11-11T10:00:29.317Z,2.92
2022-11-11T10:03:19.531Z,3.10
2022-11-11T10:06:23.776Z,2.63
2022-11-11T10:09:23.242Z,2.80
2022-11-11T10:12:15.460Z,2.50
2022-11-11T10:15:02.289Z,3.03
2022-11-11T10:18:14.631Z,3.20
2022-11-11T10:24:00.458Z,2.72
2022-11-11T10:26:48.379Z,3.08
2022-11-11T10:29:44.381Z,2.60
2022-11-11T10:32:35.532Z,2.67
2022-11-11T10:35:25.665Z,2.90
2022-11-11T10:38:28.546Z,2.75
2022-11-11T10:41:20.661Z,2.75
2022-11-11T10:44:21.263Z,2.60
2022-11-11T10:47:13.826Z,2.33
2022-11-11T10:50:06.985Z,2.58
2022-11-11T10:53:00.713Z,2.53
2022-11-11T10:55:52.117Z,2.47
2022-11-11T10:58:44.727Z,2.03
2022-11-11T11:01:36.715Z,2.03
2022-11-11T11:04:30.580Z,2.30
2022-11-11T11:07:23.936Z,2.60
2022-11-11T11:10:15.422Z,2.08
2022-11-11T11:13:10.408Z,2.15
2022-11-11T11:16:05.671Z,1.92
2022-11-11T11:19:16.655Z,2.25
2022-11-11T11:22:04.441Z,1.80
2022-11-11T11:24:50.694Z,2.33
2022-11-11T11:27:37.048Z,3.08
2022-11-11T11:30:25.567Z,2.03
2022-11-11T11:33:13.158Z,2.42
2022-11-11T11:36:16.465Z,2.03
2022-11-11T11:39:02.876Z,2.00
2022-11-11T11:41:51.964Z,2.20
2022-11-11T11:44:39.861Z,2.72
2022-11-11T11:47:41.048Z,2.40
2022-11-11T11:50:43.933Z,2.03
2022-11-11T11:53:40.852Z,2.27
2022-11-11T11:56:38.344Z,1.90
2022-11-11T11:59:33.941Z,2.20
2022-11-11T12:02:37.358Z,2.15
2022-11-11T12:05:27.937Z,2.17
2022-11-11T12:08:40.849Z,1.90
2022-11-11T12:11:35.349Z,2.85
2022-11-11T12:14:46.144Z,2.22
2022-11-11T12:17:45.039Z,2.47
2022-11-11T12:20:37.704Z,2.45
2022-11-11T12:23:50.422Z,1.90
2022-11-11T12:26:45.056Z,2.17
2022-11-11T12:29:48.036Z,2.75
2022-11-11T12:32:48.922Z,1.70
2022-11-11T12:35:50.011Z,2.00
2022-11-11T12:38:50.193Z,1.67
2022-11-11T12:41:53.074Z,2.05
2022-11-11T12:44:48.903Z,2.00
2022-11-11T12:47:43.899Z,2.15
2022-11-11T12:50:41.029Z,2.38
2022-11-11T12:53:36.368Z,2.95
2022-11-11T12:56:33.900Z,1.50
2022-11-11T12:59:30.640Z,2.08
2022-11-11T13:02:39.871Z,2.28
2022-11-11T13:05:31.865Z,1.98
2022-11-11T13:08:44.511Z,1.70
2022-11-11T13:11:40.860Z,2.85
2022-11-11T13:14:54.566Z,2.60
2022-11-11T13:17:40.900Z,1.97
2022-11-11T13:20:43.993Z,2.05
2022-11-11T13:23:31.218Z,1.90
2022-11-11T13:26:28.876Z,1.75
2022-11-11T13:29:43.470Z,1.92
2022-11-11T13:35:25.509Z,2.08
2022-11-11T13:38:26.631Z,1.90
2022-11-11T13:41:14.696Z,2.20
2022-11-11T13:44:04.288Z,2.20
2022-11-11T13:46:52.474Z,2.58
2022-11-11T13:49:44.873Z,2.20
2022-11-11T13:52:35.153Z,1.83
2022-11-11T13:55:30.196Z,2.42
2022-11-11T13:58:26.074Z,1.95
2022-11-11T14:01:13.325Z,1.90
2022-11-11T14:04:03.498Z,1.85
2022-11-11T14:06:54.969Z,2.00
2022-11-11T14:10:01.285Z,2.03
2022-11-11T14:12:49.450Z,1.95
2022-11-11T14:15:42.642Z,1.90
2022-11-11T14:18:38.499Z,2.15
2022-11-11T14:21:48.986Z,2.25
2022-11-11T14:24:41.489Z,2.10
2022-11-11T14:27:31.609Z,2.10
2022-11-11T14:30:38.499Z,2.00
2022-11-11T14:33:44.415Z,2.00
2022-11-11T14:36:38.983Z,2.30
2022-11-11T14:39:38.626Z,1.67
2022-11-11T14:42:47.725Z,2.35
2022-11-11T14:46:02.312Z,4.60
2022-11-11T14:49:06.683Z,3.38
2022-11-11T14:52:00.050Z,2.58
2022-11-11T14:55:13.970Z,2.40
2022-11-11T14:58:09.862Z,2.40
2022-11-11T15:01:02.367Z,2.25
2022-11-11T15:03:53.599Z,2.33
2022-11-11T15:06:47.145Z,2.20
2022-11-11T15:12:43.570Z,1.92
2022-11-11T15:15:42.249Z,2.00
2022-11-11T15:19:00.561Z,2.20
2022-11-11T15:21:57.469Z,2.17
2022-11-11T15:24:51.386Z,2.13
2022-11-11T15:27:49.278Z,2.60
2022-11-11T15:30:51.507Z,2.50
2022-11-11T15:33:47.941Z,2.45
2022-11-11T15:36:52.709Z,2.67
2022-11-11T15:39:43.036Z,2.30
2022-11-11T15:42:33.403Z,2.35
2022-11-11T15:45:26.839Z,1.92
2022-11-11T15:48:22.361Z,2.40
2022-11-11T15:51:19.809Z,2.30
2022-11-11T15:54:19.907Z,2.13
2022-11-11T15:57:26.053Z,2.42
2022-11-11T16:00:29.593Z,2.40
2022-11-11T16:03:17.881Z,2.90
2022-11-11T16:06:07.415Z,2.35
2022-11-11T16:08:56.545Z,2.35
2022-11-11T16:11:44.386Z,3.28
2022-11-11T16:14:33.781Z,2.65
2022-11-11T16:17:24.574Z,2.83
2022-11-11T16:20:16.043Z,3.38
2022-11-11T16:23:06.539Z,2.70
2022-11-11T16:25:54.109Z,3.50
2022-11-11T16:28:42.939Z,4.80
2022-11-11T16:31:44.413Z,3.53
2022-11-11T16:34:45.052Z,2.63
2022-11-11T16:37:31.357Z,3.20
2022-11-11T16:40:43.572Z,2.72
2022-11-11T16:43:32.387Z,3.50
2022-11-11T16:46:41.931Z,2.85
2022-11-11T16:49:32.144Z,3.78
2022-11-11T16:52:25.612Z,3.10
2022-11-11T16:55:20.883Z,2.78
2022-11-11T16:58:13.624Z,3.38
2022-11-11T17:01:02.042Z,3.25
2022-11-11T17:03:55.157Z,2.97
2022-11-11T17:06:55.577Z,2.88
2022-11-11T17:09:44.230Z,3.47
2022-11-11T17:12:32.208Z,3.17
2022-11-11T17:15:21.020Z,2.92
2022-11-11T17:18:09.147Z,3.65
2022-11-11T17:20:56.850Z,3.80
2022-11-11T17:23:43.322Z,3.33
2022-11-11T17:26:31.407Z,3.53
2022-11-11T17:29:18.005Z,3.92
2022-11-11T17:32:04.257Z,3.10
2022-11-11T17:34:50.566Z,3.22
2022-11-11T17:37:38.122Z,3.60
2022-11-11T17:40:24.410Z,3.35
2022-11-11T17:43:12.091Z,3.10
2022-11-11T17:46:01.632Z,3.63
2022-11-11T17:48:48.035Z,3.33
2022-11-11T17:51:34.264Z,3.30
2022-11-11T17:54:20.631Z,3.50
2022-11-11T17:57:06.921Z,3.33
2022-11-11T17:59:54.495Z,3.70
2022-11-11T18:02:40.973Z,3.83
2022-11-11T18:05:27.647Z,4.00
2022-11-11T18:08:13.950Z,4.07
2022-11-11T18:11:01.125Z,4.57
2022-11-11T18:13:47.339Z,4.18
2022-11-11T18:16:34.928Z,4.57
2022-11-11T18:19:21.335Z,3.70
2022-11-11T18:22:07.607Z,4.27
2022-11-11T18:24:54.202Z,4.03
2022-11-11T18:27:40.871Z,4.15
2022-11-11T18:30:27.125Z,4.63
2022-11-11T18:33:15.293Z,5.15
2022-11-11T18:36:07.084Z,6.20
2022-11-11T18:38:53.668Z,5.60
2022-11-11T18:41:40.362Z,6.05
2022-11-11T18:44:26.721Z,4.55
2022-11-11T18:47:13.699Z,6.30
2022-11-11T18:50:01.471Z,6.47
2022-11-11T18:52:48.099Z,5.75
2022-11-11T18:55:34.854Z,5.57
2022-11-11T18:58:21.258Z,5.63
2022-11-11T19:01:10.253Z,5.80
2022-11-11T19:03:58.984Z,5.25
2022-11-11T19:06:47.361Z,5.25
2022-11-11T19:09:33.888Z,6.15
2022-11-11T19:12:20.188Z,5.70
2022-11-11T19:15:07.114Z,5.72
2022-11-11T19:17:53.668Z,5.40
2022-11-11T19:20:39.811Z,6.10
2022-11-11T19:23:27.820Z,5.95
2022-11-11T19:26:15.623Z,5.50
2022-11-11T19:29:03.173Z,5.97
2022-11-11T19:31:50.104Z,5.28
2022-11-11T19:34:36.723Z,5.22
2022-11-11T19:37:24.402Z,5.53
2022-11-11T19:40:12.676Z,5.85
2022-11-11T19:42:59.184Z,5.95
2022-11-11T19:45:45.572Z,5.57
2022-11-11T19:48:31.902Z,6.40
2022-11-11T19:51:20.249Z,5.75
2022-11-11T19:54:06.674Z,5.38
2022-11-11T19:56:54.357Z,6.05
2022-11-11T19:59:40.764Z,5.97
2022-11-11T20:02:27.626Z,5.57
2022-11-11T20:05:14.168Z,5.75
2022-11-11T20:08:00.392Z,5.63
2022-11-11T20:10:47.794Z,6.15
2022-11-11T20:13:41.343Z,5.82
2022-11-11T20:16:29.270Z,5.28
2022-11-11T20:19:15.365Z,5.70
2022-11-11T20:22:05.865Z,4.88
2022-11-11T20:24:52.617Z,5.15
2022-11-11T20:27:38.818Z,5.38
2022-11-11T20:30:26.712Z,5.50
2022-11-11T20:33:13.470Z,5.68
2022-11-11T20:36:01.941Z,5.70
2022-11-11T20:38:48.366Z,4.82
2022-11-11T20:41:36.012Z,4.70
2022-11-11T20:44:22.218Z,5.35
2022-11-11T20:47:10.292Z,5.07
2022-11-11T20:49:56.784Z,4.97
2022-11-11T20:52:43.089Z,5.45
2022-11-11T20:55:29.379Z,5.53
2022-11-11T20:58:15.633Z,4.95
2022-11-11T21:01:03.324Z,5.60
2022-11-11T21:03:54.542Z,5.45
2022-11-11T21:06:40.975Z,5.13
2022-11-11T21:09:27.146Z,5.53
2022-11-11T21:12:13.472Z,5.35
2022-11-11T21:14:59.731Z,5.30
2022-11-11T21:17:46.083Z,5.70
2022-11-11T21:20:33.764Z,5.60
2022-11-11T21:23:19.888Z,4.95
2022-11-11T21:26:08.079Z,4.43
2022-11-11T21:28:54.876Z,5.50
2022-11-11T21:31:42.284Z,5.20
2022-11-11T21:34:28.719Z,5.63
2022-11-11T21:37:16.931Z,4.85
2022-11-11T21:40:03.238Z,5.30
2022-11-11T21:42:52.701Z,4.65
2022-11-11T21:45:43.063Z,4.32
2022-11-11T21:48:29.789Z,4.35
2022-11-11T21:51:20.549Z,4.55
2022-11-11T21:54:10.133Z,4.35
2022-11-11T21:56:56.601Z,5.57
2022-11-11T21:59:42.799Z,5.55
2022-11-11T22:02:29.212Z,5.13
2022-11-11T22:05:15.586Z,4.90
2022-11-11T22:08:02.116Z,4.68
2022-11-11T22:10:49.907Z,4.60
2022-11-11T22:13:37.153Z,4.82
2022-11-11T22:16:25.248Z,4.50
2022-11-11T22:19:14.239Z,4.90
2022-11-11T22:22:00.798Z,4.63
2022-11-11T22:24:47.085Z,4.78
2022-11-11T22:27:34.641Z,5.43
2022-11-11T22:30:21.193Z,4.68
2022-11-11T22:33:07.473Z,4.85
2022-11-11T22:35:53.627Z,5.07
2022-11-11T22:38:40.187Z,5.13
2022-11-11T22:41:29.008Z,5.00
2022-11-11T22:44:16.831Z,5.10
2022-11-11T22:47:03.215Z,5.03
2022-11-11T22:49:49.441Z,5.07
2022-11-11T22:52:35.596Z,4.65
2022-11-11T22:55:21.758Z,4.53
2022-11-11T22:58:08.158Z,5.07
2022-11-11T23:00:55.732Z,4.88
2022-11-11T23:03:44.134Z,5.22
2022-11-11T23:06:32.888Z,5.20
2022-11-11T23:09:19.042Z,4.82
2022-11-11T23:12:05.742Z,4.88
2022-11-11T23:14:52.511Z,4.88
2022-11-11T23:17:40.401Z,4.60
2022-11-11T23:20:26.783Z,4.55
2022-11-11T23:23:13.174Z,4.45
2022-11-11T23:26:04.179Z,4.60
2022-11-11T23:28:50.862Z,4.90
2022-11-11T23:31:37.494Z,4.45
2022-11-11T23:34:25.268Z,4.30
2022-11-11T23:37:11.382Z,4.25
2022-11-11T23:39:57.808Z,4.80
2022-11-11T23:42:44.042Z,4.45
2022-11-11T23:45:31.256Z,4.50
2022-11-11T23:48:18.315Z,4.10
2022-11-11T23:51:06.514Z,4.32
2022-11-11T23:53:52.884Z,4.75
2022-11-11T23:56:39.217Z,4.25
2022-11-11T23:59:25.541Z,4.60
